Time,TemperatureF,DewpointF,PressureIn,WindDirection,WindDirectionDegrees,WindSpeedMPH,WindSpeedGustMPH,Humidity,HourlyPrecipIn,Conditions,Clouds,dailyrainin,SoftwareType,DateUTC
2013-05-11 00:05:00,42.1,38.2,29.85,NNE,24,1.1,6.9,86,0.00,,,-99.99,open2300 version1.11,2013-05-11 04:05:00,
2013-05-11 00:10:00,42.1,38.2,29.85,North,10,1.2,6.3,86,0.00,,,-99.99,open2300 version1.11,2013-05-11 04:10:00,
2013-05-11 00:15:00,42.1,38.2,29.85,NNE,31,0.2,2.2,86,0.00,,,-99.99,open2300 version1.11,2013-05-11 04:15:00,
2013-05-11 00:25:00,42.1,38.2,29.85,NNE,26,0.5,3.4,86,0.00,,,-99.99,open2300 version1.11,2013-05-11 04:25:00,
2013-05-11 00:30:00,42.1,38.2,29.86,North,7,0.3,4.9,86,0.00,,,-99.99,open2300 version1.11,2013-05-11 04:30:00,
2013-05-11 00:35:00,42.1,38.2,29.86,WNW,292,0.0,0.0,86,0.00,,,-99.99,open2300 version1.11,2013-05-11 04:35:00,
2013-05-11 00:40:00,42.4,38.5,29.86,NE,45,0.0,0.0,86,0.00,,,-99.99,open2300 version1.11,2013-05-11 04:40:00,
2013-05-11 00:45:00,42.4,38.8,29.86,West,281,0.0,0.9,87,0.00,,,-99.99,open2300 version1.11,2013-05-11 04:45:00,
2013-05-11 00:50:00,42.6,39.0,29.86,North,352,0.6,4.0,87,0.00,,,-99.99,open2300 version1.11,2013-05-11 04:50:00,
2013-05-11 00:55:00,42.6,39.0,29.86,North,0,0.0,0.9,87,0.00,,,-99.99,open2300 version1.11,2013-05-11 04:55:00,
2013-05-11 01:05:00,42.6,39.0,29.86,NNE,18,0.1,2.0,87,0.00,,,-99.99,open2300 version1.11,2013-05-11 05:05:00,
2013-05-11 01:10:00,42.6,39.0,29.85,North,0,0.0,0.7,87,0.00,,,-99.99,open2300 version1.11,2013-05-11 05:10:00,
2013-05-11 01:15:00,42.4,38.8,29.85,North,0,0.0,0.0,87,0.00,,,-99.99,open2300 version1.11,2013-05-11 05:15:00,
2013-05-11 01:20:00,42.4,38.8,29.85,North,0,0.0,0.0,87,0.00,,,-99.99,open2300 version1.11,2013-05-11 05:20:00,
2013-05-11 01:25:00,42.4,38.8,29.86,North,0,0.0,0.0,87,0.00,,,-99.99,open2300 version1.11,2013-05-11 05:25:00,
2013-05-11 01:30:00,42.6,39.0,29.86,North,0,0.0,0.0,87,0.00,,,-99.99,open2300 version1.11,2013-05-11 05:30:00,
2013-05-11 01:40:00,42.6,39.0,29.85,North,351,0.2,1.8,87,0.00,,,-99.99,open2300 version1.11,2013-05-11 05:40:00,
2013-05-11 01:45:00,42.6,39.0,29.86,North,354,0.4,3.6,87,0.00,,,-99.99,open2300 version1.11,2013-05-11 05:45:00,
2013-05-11 01:50:00,42.6,39.0,29.85,NNE,22,0.1,2.0,87,0.00,,,-99.99,open2300 version1.11,2013-05-11 05:50:00,
2013-05-11 01:55:00,42.6,39.0,29.85,NNE,22,0.1,2.0,87,0.00,,,-99.99,open2300 version1.11,2013-05-11 05:55:00,
2013-05-11 02:00:00,42.6,39.0,29.85,NW,323,0.3,2.7,87,0.00,,,-99.99,open2300 version1.11,2013-05-11 06:00:00,
2013-05-11 02:05:00,42.6,39.3,29.85,North,0,0.0,0.5,88,0.00,,,-99.99,open2300 version1.11,2013-05-11 06:05:00,
2013-05-11 02:10:00,42.6,39.3,29.85,NNE,22,0.1,1.8,88,0.00,,,-99.99,open2300 version1.11,2013-05-11 06:10:00,
2013-05-11 02:15:00,42.6,39.3,29.85,NNE,12,0.3,1.8,88,0.00,,,-99.99,open2300 version1.11,2013-05-11 06:15:00,
2013-05-11 02:20:00,42.6,39.3,29.85,NNW,337,0.0,0.0,88,0.00,,,-99.99,open2300 version1.11,2013-05-11 06:20:00,
2013-05-11 02:30:00,43.0,39.7,29.85,NW,315,0.0,0.0,88,0.00,,,-99.99,open2300 version1.11,2013-05-11 06:30:00,
2013-05-11 02:35:00,43.0,39.7,29.85,NNW,337,0.0,0.7,88,0.00,,,-99.99,open2300 version1.11,2013-05-11 06:35:00,
2013-05-11 02:45:00,43.0,39.7,29.85,West,270,0.1,1.8,88,0.00,,,-99.99,open2300 version1.11,2013-05-11 06:45:00,
2013-05-11 02:55:00,43.2,39.9,29.85,West,270,0.1,1.3,88,0.00,,,-99.99,open2300 version1.11,2013-05-11 06:55:00,
2013-05-11 03:00:00,43.2,39.9,29.85,SE,135,0.3,3.8,88,0.00,,,-99.99,open2300 version1.11,2013-05-11 07:00:00,
2013-05-11 03:10:00,43.2,39.5,29.85,SE,135,0.6,2.5,87,0.00,,,-99.99,open2300 version1.11,2013-05-11 07:10:00,
2013-05-11 03:20:00,43.2,39.5,29.86,West,270,0.0,0.9,87,0.00,,,-99.99,open2300 version1.11,2013-05-11 07:20:00,
2013-05-11 03:25:00,43.3,39.7,29.86,West,270,0.0,0.0,87,0.00,,,-99.99,open2300 version1.11,2013-05-11 07:25:00,
2013-05-11 03:30:00,43.3,39.7,29.85,West,270,0.1,1.1,87,0.00,,,-99.99,open2300 version1.11,2013-05-11 07:30:00,
2013-05-11 03:35:00,43.3,39.7,29.85,West,270,0.0,0.7,87,0.00,,,-99.99,open2300 version1.11,2013-05-11 07:35:00,
2013-05-11 03:45:00,43.3,39.7,29.86,WSW,247,0.0,0.9,87,0.00,,,-99.99,open2300 version1.11,2013-05-11 07:45:00,
2013-05-11 03:50:00,43.3,39.7,29.86,WSW,247,0.0,0.0,87,0.00,,,-99.99,open2300 version1.11,2013-05-11 07:50:00,
2013-05-11 03:55:00,43.3,39.7,29.85,WSW,247,0.0,1.1,87,0.00,,,-99.99,open2300 version1.11,2013-05-11 07:55:00,
2013-05-11 04:05:00,43.3,39.7,29.86,WSW,247,0.0,0.0,87,0.00,,,-99.99,open2300 version1.11,2013-05-11 08:05:00,
2013-05-11 04:15:00,43.3,39.7,29.86,WSW,247,0.1,1.1,87,0.00,,,-99.99,open2300 version1.11,2013-05-11 08:15:00,
2013-05-11 04:20:00,43.3,39.7,29.86,WSW,247,0.2,0.9,87,0.00,,,-99.99,open2300 version1.11,2013-05-11 08:20:00,
2013-05-11 04:25:00,43.3,39.7,29.86,SE,135,0.1,0.9,87,0.00,,,-99.99,open2300 version1.11,2013-05-11 08:25:00,
2013-05-11 04:30:00,43.2,39.5,29.86,West,265,0.1,1.6,87,0.00,,,-99.99,open2300 version1.11,2013-05-11 08:30:00,
2013-05-11 04:35:00,43.2,39.5,29.87,West,270,0.0,1.3,87,0.00,,,-99.99,open2300 version1.11,2013-05-11 08:35:00,
2013-05-11 04:45:00,43.2,39.5,29.87,West,270,0.0,0.0,87,0.00,,,-99.99,open2300 version1.11,2013-05-11 08:45:00,
2013-05-11 04:55:00,43.2,39.5,29.87,West,270,0.0,0.9,87,0.00,,,-99.99,open2300 version1.11,2013-05-11 08:55:00,
2013-05-11 05:05:00,43.2,39.5,29.87,West,270,0.0,0.0,87,0.00,,,-99.99,open2300 version1.11,2013-05-11 09:05:00,
2013-05-11 05:10:00,43.2,39.5,29.87,West,270,0.0,0.0,87,0.00,,,-99.99,open2300 version1.11,2013-05-11 09:10:00,
2013-05-11 05:15:00,43.2,39.5,29.86,West,270,0.0,0.0,87,0.00,,,-99.99,open2300 version1.11,2013-05-11 09:15:00,
2013-05-11 05:20:00,43.2,39.5,29.87,West,270,0.0,0.0,87,0.00,,,-99.99,open2300 version1.11,2013-05-11 09:20:00,
2013-05-11 05:25:00,43.2,39.5,29.86,West,270,0.0,0.9,87,0.00,,,-99.99,open2300 version1.11,2013-05-11 09:25:00,
2013-05-11 05:30:00,43.3,39.7,29.86,West,270,0.1,1.1,87,0.00,,,-99.99,open2300 version1.11,2013-05-11 09:30:00,
2013-05-11 05:35:00,43.2,39.5,29.86,West,270,0.0,0.9,87,0.00,,,-99.99,open2300 version1.11,2013-05-11 09:35:00,
2013-05-11 05:45:00,43.2,39.5,29.86,SE,135,0.0,0.7,87,0.00,,,-99.99,open2300 version1.11,2013-05-11 09:45:00,
2013-05-11 05:50:00,43.2,39.5,29.86,West,270,0.0,0.7,87,0.00,,,-99.99,open2300 version1.11,2013-05-11 09:50:00,
2013-05-11 05:55:00,43.0,39.4,29.85,West,270,0.0,0.7,87,0.00,,,-99.99,open2300 version1.11,2013-05-11 09:55:00,
2013-05-11 06:00:00,43.2,39.5,29.86,West,270,0.1,1.8,87,0.00,,,-99.99,open2300 version1.11,2013-05-11 10:00:00,
2013-05-11 06:05:00,43.2,39.5,29.86,SE,135,0.0,1.1,87,0.00,,,-99.99,open2300 version1.11,2013-05-11 10:05:00,
2013-05-11 06:10:00,43.2,39.5,29.86,SE,135,0.3,1.8,87,0.00,,,-99.99,open2300 version1.11,2013-05-11 10:10:00,
2013-05-11 06:15:00,43.2,39.5,29.86,WSW,247,0.3,2.2,87,0.00,,,-99.99,open2300 version1.11,2013-05-11 10:15:00,
2013-05-11 06:20:00,43.2,39.5,29.86,WSW,247,0.0,0.9,87,0.00,,,-99.99,open2300 version1.11,2013-05-11 10:20:00,
2013-05-11 06:30:00,43.2,39.5,29.86,West,270,0.0,0.0,87,0.00,,,-99.99,open2300 version1.11,2013-05-11 10:30:00,
2013-05-11 06:35:00,43.2,39.5,29.86,West,270,0.0,0.0,87,0.00,,,-99.99,open2300 version1.11,2013-05-11 10:35:00,
2013-05-11 06:40:00,43.3,39.7,29.85,West,270,0.0,0.9,87,0.00,,,-99.99,open2300 version1.11,2013-05-11 10:40:00,
2013-05-11 06:45:00,43.3,39.7,29.85,SE,135,0.2,2.2,87,0.00,,,-99.99,open2300 version1.11,2013-05-11 10:45:00,
2013-05-11 06:50:00,43.3,40.0,29.86,SE,135,1.2,3.1,88,0.00,,,-99.99,open2300 version1.11,2013-05-11 10:50:00,
2013-05-11 06:55:00,43.3,40.0,29.86,South,183,0.5,2.5,88,0.00,,,-99.99,open2300 version1.11,2013-05-11 10:55:00,
2013-05-11 07:05:00,43.3,39.7,29.86,WSW,247,0.0,0.0,87,0.00,,,-99.99,open2300 version1.11,2013-05-11 11:05:00,
2013-05-11 07:15:00,43.5,39.9,29.86,WSW,247,0.1,1.1,87,0.00,,,-99.99,open2300 version1.11,2013-05-11 11:15:00,
2013-05-11 07:20:00,43.5,39.9,29.86,WSW,247,0.0,0.9,87,0.00,,,-99.99,open2300 version1.11,2013-05-11 11:20:00,
2013-05-11 07:25:00,43.5,39.9,29.86,WSW,247,0.0,0.0,87,0.00,,,-99.99,open2300 version1.11,2013-05-11 11:25:00,
2013-05-11 07:30:00,43.5,39.9,29.86,WSW,247,0.1,1.6,87,0.00,,,-99.99,open2300 version1.11,2013-05-11 11:30:00,
2013-05-11 07:35:00,43.7,40.1,29.86,SE,135,0.0,0.0,87,0.00,,,-99.99,open2300 version1.11,2013-05-11 11:35:00,
2013-05-11 07:45:00,43.9,40.3,29.85,SE,135,0.0,0.9,87,0.00,,,-99.99,open2300 version1.11,2013-05-11 11:45:00,
2013-05-11 07:50:00,44.2,40.6,29.86,SE,135,0.1,1.1,87,0.00,,,-99.99,open2300 version1.11,2013-05-11 11:50:00,
2013-05-11 07:55:00,44.1,40.4,29.86,SE,135,0.1,1.6,87,0.00,,,-99.99,open2300 version1.11,2013-05-11 11:55:00,
2013-05-11 08:00:00,44.2,40.6,29.85,WSW,246,0.8,2.5,87,0.00,,,-99.99,open2300 version1.11,2013-05-11 12:00:00,
2013-05-11 08:05:00,44.4,40.8,29.85,WSW,257,0.3,1.6,87,0.00,,,-99.99,open2300 version1.11,2013-05-11 12:05:00,
2013-05-11 08:10:00,44.2,40.6,29.85,SE,135,0.0,0.0,87,0.00,,,-99.99,open2300 version1.11,2013-05-11 12:10:00,
2013-05-11 08:20:00,44.4,40.8,29.85,SE,135,0.1,1.6,87,0.00,,,-99.99,open2300 version1.11,2013-05-11 12:20:00,
2013-05-11 08:25:00,44.6,41.0,29.85,SE,135,0.0,0.0,87,0.00,,,-99.99,open2300 version1.11,2013-05-11 12:25:00,
2013-05-11 08:30:00,44.8,41.2,29.85,SE,135,0.0,0.0,87,0.00,,,-99.99,open2300 version1.11,2013-05-11 12:30:00,
2013-05-11 08:35:00,45.0,41.3,29.84,SE,135,0.0,0.0,87,0.00,,,-99.99,open2300 version1.11,2013-05-11 12:35:00,
2013-05-11 08:40:00,45.1,41.5,29.84,SE,135,0.0,0.0,87,0.00,,,-99.99,open2300 version1.11,2013-05-11 12:40:00,
2013-05-11 08:50:00,45.5,41.9,29.84,SE,135,0.1,0.9,87,0.00,,,-99.99,open2300 version1.11,2013-05-11 12:50:00,
2013-05-11 09:00:00,45.7,42.1,29.84,SSW,211,0.6,2.5,87,0.00,,,-99.99,open2300 version1.11,2013-05-11 13:00:00,
2013-05-11 09:05:00,46.0,42.1,29.84,South,189,0.2,1.3,86,0.00,,,-99.99,open2300 version1.11,2013-05-11 13:05:00,
2013-05-11 09:15:00,46.0,42.1,29.85,WSW,247,0.8,2.9,86,0.00,,,-99.99,open2300 version1.11,2013-05-11 13:15:00,
2013-05-11 09:20:00,46.2,42.3,29.85,WSW,243,1.0,4.0,86,0.00,,,-99.99,open2300 version1.11,2013-05-11 13:20:00,
2013-05-11 09:25:00,46.2,42.3,29.85,West,270,0.4,2.0,86,0.00,,,-99.99,open2300 version1.11,2013-05-11 13:25:00,
2013-05-11 09:35:00,46.2,42.3,29.84,SW,225,0.2,1.8,86,0.00,,,-99.99,open2300 version1.11,2013-05-11 13:35:00,
2013-05-11 09:40:00,46.4,42.5,29.84,WSW,242,0.3,2.0,86,0.00,,,-99.99,open2300 version1.11,2013-05-11 13:40:00,
2013-05-11 09:45:00,46.6,42.6,29.84,WSW,256,0.8,3.6,86,0.00,,,-99.99,open2300 version1.11,2013-05-11 13:45:00,
2013-05-11 09:50:00,46.6,42.6,29.84,SE,135,0.3,1.8,86,0.00,,,-99.99,open2300 version1.11,2013-05-11 13:50:00,
2013-05-11 09:55:00,46.6,42.6,29.84,West,270,0.2,1.1,86,0.00,,,-99.99,open2300 version1.11,2013-05-11 13:55:00,
2013-05-11 10:05:00,46.8,42.8,29.84,SE,135,0.6,2.9,86,0.00,,,-99.99,open2300 version1.11,2013-05-11 14:05:00,
2013-05-11 10:10:00,46.9,43.0,29.84,WSW,247,0.3,1.6,86,0.00,,,-99.99,open2300 version1.11,2013-05-11 14:10:00,
2013-05-11 10:15:00,47.1,43.2,29.84,West,267,0.3,2.5,86,0.00,,,-99.99,open2300 version1.11,2013-05-11 14:15:00,
2013-05-11 10:20:00,47.1,43.2,29.84,SE,135,1.4,4.2,86,0.00,,,-99.99,open2300 version1.11,2013-05-11 14:20:00,
2013-05-11 10:25:00,47.1,43.2,29.84,SE,135,0.4,2.7,86,0.00,,,-99.99,open2300 version1.11,2013-05-11 14:25:00,
2013-05-11 10:30:00,47.3,43.3,29.84,SE,135,0.0,0.0,86,0.00,,,-99.99,open2300 version1.11,2013-05-11 14:30:00,
2013-05-11 10:35:00,47.5,43.5,29.84,SE,135,0.0,0.0,86,0.00,,,-99.99,open2300 version1.11,2013-05-11 14:35:00,
2013-05-11 10:40:00,48.0,44.0,29.84,SE,135,0.0,0.0,86,0.00,,,-99.99,open2300 version1.11,2013-05-11 14:40:00,
2013-05-11 10:45:00,48.4,44.4,29.84,SE,135,0.2,2.7,86,0.00,,,-99.99,open2300 version1.11,2013-05-11 14:45:00,
2013-05-11 10:50:00,48.6,44.2,29.84,West,260,0.7,3.4,85,0.00,,,-99.99,open2300 version1.11,2013-05-11 14:50:00,
2013-05-11 10:55:00,48.7,44.4,29.84,West,270,0.2,2.0,85,0.00,,,-99.99,open2300 version1.11,2013-05-11 14:55:00,
2013-05-11 11:05:00,49.1,44.4,29.83,West,270,0.0,0.0,84,0.00,,,-99.99,open2300 version1.11,2013-05-11 15:05:00,
2013-05-11 11:10:00,49.3,44.6,29.83,West,268,0.4,1.3,84,0.00,,,-99.99,open2300 version1.11,2013-05-11 15:10:00,
2013-05-11 11:15:00,49.6,44.6,29.83,WSW,254,0.9,2.7,83,0.00,,,-99.99,open2300 version1.11,2013-05-11 15:15:00,
2013-05-11 11:25:00,49.8,44.8,29.83,WSW,247,0.2,1.3,83,0.00,,,-99.99,open2300 version1.11,2013-05-11 15:25:00,
2013-05-11 11:35:00,50.4,45.0,29.82,SW,225,0.8,2.0,82,0.00,,,-99.99,open2300 version1.11,2013-05-11 15:35:00,
2013-05-11 11:40:00,50.5,45.2,29.83,SW,225,0.3,2.9,82,0.00,,,-99.99,open2300 version1.11,2013-05-11 15:40:00,
2013-05-11 11:45:00,50.7,45.4,29.82,SW,225,0.5,1.8,82,0.00,,,-99.99,open2300 version1.11,2013-05-11 15:45:00,
2013-05-11 11:50:00,50.9,45.6,29.82,SW,225,0.1,1.3,82,0.00,,,-99.99,open2300 version1.11,2013-05-11 15:50:00,
2013-05-11 11:55:00,50.9,45.6,29.82,SW,225,0.3,1.8,82,0.00,,,-99.99,open2300 version1.11,2013-05-11 15:55:00,
2013-05-11 12:05:00,51.1,45.5,29.82,WSW,247,0.1,1.3,81,0.00,,,-99.99,open2300 version1.11,2013-05-11 16:05:00,
2013-05-11 12:10:00,51.4,45.8,29.82,SE,135,0.2,2.2,81,0.00,,,-99.99,open2300 version1.11,2013-05-11 16:10:00,
2013-05-11 12:15:00,51.6,46.0,29.82,SE,135,0.2,1.6,81,0.00,,,-99.99,open2300 version1.11,2013-05-11 16:15:00,
2013-05-11 12:20:00,52.0,46.4,29.82,SE,135,0.2,1.6,81,0.00,,,-99.99,open2300 version1.11,2013-05-11 16:20:00,
2013-05-11 12:30:00,52.9,46.9,29.81,SE,135,0.2,2.2,80,0.00,,,-99.99,open2300 version1.11,2013-05-11 16:30:00,
2013-05-11 12:35:00,53.4,47.5,29.81,SE,135,0.2,2.2,80,0.00,,,-99.99,open2300 version1.11,2013-05-11 16:35:00,
2013-05-11 12:40:00,54.0,47.6,29.81,SSW,210,0.4,2.2,79,0.00,,,-99.99,open2300 version1.11,2013-05-11 16:40:00,
2013-05-11 12:50:00,55.6,48.4,29.80,South,187,0.3,3.6,77,0.00,,,-99.99,open2300 version1.11,2013-05-11 16:50:00,
2013-05-11 12:55:00,56.5,48.9,29.80,SE,141,0.7,6.5,76,0.00,,,-99.99,open2300 version1.11,2013-05-11 16:55:00,
2013-05-11 13:00:00,57.4,49.1,29.80,WSW,254,0.9,3.8,74,0.00,,,-99.99,open2300 version1.11,2013-05-11 17:00:00,
2013-05-11 13:05:00,58.3,49.6,29.80,SW,231,1.7,4.0,73,0.00,,,-99.99,open2300 version1.11,2013-05-11 17:05:00,
2013-05-11 13:10:00,58.8,49.5,29.80,SE,133,0.8,6.3,71,0.00,,,-99.99,open2300 version1.11,2013-05-11 17:10:00,
2013-05-11 13:15:00,59.5,49.8,29.80,SSW,200,1.6,6.0,70,0.00,,,-99.99,open2300 version1.11,2013-05-11 17:15:00,
2013-05-11 13:20:00,60.1,50.0,29.79,SW,232,1.1,4.7,69,0.00,,,-99.99,open2300 version1.11,2013-05-11 17:20:00,
2013-05-11 13:25:00,60.4,49.5,29.79,WSW,252,2.2,7.2,67,0.00,,,-99.99,open2300 version1.11,2013-05-11 17:25:00,
2013-05-11 13:35:00,61.0,49.6,29.79,SW,231,0.3,1.8,66,0.00,,,-99.99,open2300 version1.11,2013-05-11 17:35:00,
2013-05-11 13:40:00,61.2,49.3,29.78,SW,227,0.5,4.2,65,0.00,,,-99.99,open2300 version1.11,2013-05-11 17:40:00,
2013-05-11 13:50:00,61.9,49.1,29.77,SE,135,0.7,3.8,63,0.00,,,-99.99,open2300 version1.11,2013-05-11 17:50:00,
2013-05-11 13:55:00,62.1,49.3,29.77,WSW,247,0.3,2.2,63,0.00,,,-99.99,open2300 version1.11,2013-05-11 17:55:00,
2013-05-11 14:00:00,61.9,48.7,29.77,SW,235,1.1,3.6,62,0.00,,,-99.99,open2300 version1.11,2013-05-11 18:00:00,
2013-05-11 14:05:00,61.9,48.7,29.77,WSW,239,2.3,5.4,62,0.00,,,-99.99,open2300 version1.11,2013-05-11 18:05:00,
2013-05-11 14:10:00,62.2,49.5,29.77,SSE,166,1.7,5.6,63,0.00,,,-99.99,open2300 version1.11,2013-05-11 18:10:00,
2013-05-11 14:15:00,62.4,48.8,29.77,SW,234,2.1,5.6,61,0.00,,,-99.99,open2300 version1.11,2013-05-11 18:15:00,
2013-05-11 14:20:00,63.0,49.3,29.77,SSW,202,0.6,2.9,61,0.00,,,-99.99,open2300 version1.11,2013-05-11 18:20:00,
2013-05-11 14:25:00,63.1,49.0,29.77,SW,236,0.8,2.9,60,0.00,,,-99.99,open2300 version1.11,2013-05-11 18:25:00,
2013-05-11 14:30:00,63.0,48.4,29.77,SW,225,0.8,5.1,59,0.00,,,-99.99,open2300 version1.11,2013-05-11 18:30:00,
2013-05-11 14:40:00,62.6,48.6,29.77,SW,232,1.1,3.6,60,0.00,,,-99.99,open2300 version1.11,2013-05-11 18:40:00,
2013-05-11 14:45:00,62.4,48.4,29.76,SW,231,1.3,4.5,60,0.00,,,-99.99,open2300 version1.11,2013-05-11 18:45:00,
2013-05-11 14:50:00,62.6,48.6,29.76,SSE,157,1.3,4.2,60,0.00,,,-99.99,open2300 version1.11,2013-05-11 18:50:00,
2013-05-11 14:55:00,63.0,48.9,29.77,South,174,1.6,4.2,60,0.00,,,-99.99,open2300 version1.11,2013-05-11 18:55:00,
2013-05-11 15:00:00,63.5,48.9,29.76,SW,228,1.7,4.7,59,0.00,,,-99.99,open2300 version1.11,2013-05-11 19:00:00,
2013-05-11 15:05:00,63.7,48.6,29.76,SSE,157,0.1,2.5,58,0.00,,,-99.99,open2300 version1.11,2013-05-11 19:05:00,
2013-05-11 15:10:00,63.7,48.1,29.76,SSW,195,0.5,4.2,57,0.00,,,-99.99,open2300 version1.11,2013-05-11 19:10:00,
2013-05-11 15:15:00,63.5,48.4,29.76,WSW,249,0.5,3.1,58,0.00,,,-99.99,open2300 version1.11,2013-05-11 19:15:00,
2013-05-11 15:20:00,63.7,48.6,29.75,WSW,255,0.3,2.7,58,0.00,,,-99.99,open2300 version1.11,2013-05-11 19:20:00,
2013-05-11 15:25:00,64.0,48.9,29.75,ESE,123,0.6,5.1,58,0.00,,,-99.99,open2300 version1.11,2013-05-11 19:25:00,
2013-05-11 15:35:00,64.2,49.0,29.73,SE,127,0.6,4.2,58,0.00,,,-99.99,open2300 version1.11,2013-05-11 19:35:00,
2013-05-11 15:40:00,64.2,49.0,29.73,SSE,152,1.1,6.7,58,0.00,,,-99.99,open2300 version1.11,2013-05-11 19:40:00,
2013-05-11 15:45:00,64.4,48.2,29.73,SE,136,2.1,7.8,56,0.00,,,-99.99,open2300 version1.11,2013-05-11 19:45:00,
2013-05-11 15:50:00,64.6,48.4,29.73,SSE,157,1.4,7.2,56,0.00,,,-99.99,open2300 version1.11,2013-05-11 19:50:00,
2013-05-11 15:55:00,64.6,47.9,29.73,WSW,249,1.1,3.6,55,0.00,,,-99.99,open2300 version1.11,2013-05-11 19:55:00,
2013-05-11 16:05:00,64.8,48.1,29.73,WSW,254,1.4,4.7,55,0.00,,,-99.99,open2300 version1.11,2013-05-11 20:05:00,
2013-05-11 16:10:00,64.6,47.9,29.73,WSW,247,0.4,2.2,55,0.00,,,-99.99,open2300 version1.11,2013-05-11 20:10:00,
2013-05-11 16:15:00,64.2,47.6,29.72,SW,232,1.9,6.0,55,0.00,,,-99.99,open2300 version1.11,2013-05-11 20:15:00,
2013-05-11 16:20:00,64.0,47.4,29.73,WSW,256,0.6,4.9,55,0.00,,,-99.99,open2300 version1.11,2013-05-11 20:20:00,
2013-05-11 16:30:00,64.0,47.4,29.72,WSW,252,0.9,4.2,55,0.00,,,-99.99,open2300 version1.11,2013-05-11 20:30:00,
2013-05-11 16:40:00,64.2,47.1,29.71,SSE,150,2.0,10.3,54,0.00,,,-99.99,open2300 version1.11,2013-05-11 20:40:00,
2013-05-11 16:45:00,64.0,47.4,29.71,South,182,0.6,3.4,55,0.00,,,-99.99,open2300 version1.11,2013-05-11 20:45:00,
2013-05-11 16:50:00,64.0,47.4,29.70,NW,307,1.1,4.7,55,0.00,,,-99.99,open2300 version1.11,2013-05-11 20:50:00,
2013-05-11 16:55:00,64.2,47.1,29.71,SSE,149,1.8,8.3,54,0.00,,,-99.99,open2300 version1.11,2013-05-11 20:55:00,
2013-05-11 17:00:00,63.7,46.1,29.72,SSW,197,2.2,7.2,53,0.00,,,-99.99,open2300 version1.11,2013-05-11 21:00:00,
2013-05-11 17:10:00,62.6,45.2,29.72,SW,233,2.4,6.0,53,0.00,,,-99.99,open2300 version1.11,2013-05-11 21:10:00,
2013-05-11 17:15:00,62.1,44.7,29.73,WSW,241,4.6,8.3,53,0.00,,,-99.99,open2300 version1.11,2013-05-11 21:15:00,
2013-05-11 17:20:00,61.3,45.5,29.73,WSW,247,3.7,8.1,56,0.00,,,-99.99,open2300 version1.11,2013-05-11 21:20:00,
2013-05-11 17:25:00,60.4,45.6,29.74,WSW,245,4.0,8.1,58,0.00,,,-99.99,open2300 version1.11,2013-05-11 21:25:00,
2013-05-11 17:30:00,59.7,45.4,29.74,SW,236,1.9,5.6,59,0.00,,,-99.99,open2300 version1.11,2013-05-11 21:30:00,
2013-05-11 17:40:00,58.6,45.2,29.74,WSW,246,3.3,6.9,61,0.00,,,-99.99,open2300 version1.11,2013-05-11 21:40:00,
2013-05-11 17:45:00,57.9,45.0,29.74,WSW,245,2.9,6.5,62,0.00,,,-99.99,open2300 version1.11,2013-05-11 21:45:00,
2013-05-11 17:50:00,57.4,44.9,29.74,WSW,240,2.9,6.5,63,0.00,,,-99.99,open2300 version1.11,2013-05-11 21:50:00,
2013-05-11 17:55:00,57.0,44.5,29.74,WSW,247,2.0,7.8,63,0.00,,,-99.99,open2300 version1.11,2013-05-11 21:55:00,
2013-05-11 18:00:00,56.7,45.0,29.74,SW,232,2.6,5.1,65,0.00,,,-99.99,open2300 version1.11,2013-05-11 22:00:00,
2013-05-11 18:05:00,56.3,45.0,29.74,WSW,238,1.7,5.4,66,0.00,,,-99.99,open2300 version1.11,2013-05-11 22:05:00,
2013-05-11 18:10:00,55.9,44.7,29.74,WSW,247,0.7,2.9,66,0.00,,,-99.99,open2300 version1.11,2013-05-11 22:10:00,
2013-05-11 18:15:00,55.8,44.5,29.74,SW,233,0.8,3.4,66,0.00,,,-99.99,open2300 version1.11,2013-05-11 22:15:00,
2013-05-11 18:20:00,55.6,44.8,29.74,SW,235,1.2,3.1,67,0.00,,,-99.99,open2300 version1.11,2013-05-11 22:20:00,
2013-05-11 18:25:00,55.4,45.0,29.74,WSW,237,1.5,4.5,68,0.00,,,-99.99,open2300 version1.11,2013-05-11 22:25:00,
2013-05-11 18:35:00,54.9,45.3,29.75,WSW,254,4.4,7.4,70,0.02,,,-99.99,open2300 version1.11,2013-05-11 22:35:00,
2013-05-11 18:40:00,54.3,45.1,29.76,WSW,252,3.6,7.8,71,0.02,,,-99.99,open2300 version1.11,2013-05-11 22:40:00,
2013-05-11 18:50:00,53.6,44.8,29.77,West,259,3.6,7.4,72,0.02,,,-99.99,open2300 version1.11,2013-05-11 22:50:00,
2013-05-11 18:55:00,53.4,44.2,29.77,WSW,257,2.3,5.8,71,0.02,,,-99.99,open2300 version1.11,2013-05-11 22:55:00,
2013-05-11 19:00:00,52.9,43.8,29.77,West,269,3.5,7.6,71,0.02,,,-99.99,open2300 version1.11,2013-05-11 23:00:00,
2013-05-11 19:10:00,52.2,43.1,29.78,West,263,4.7,8.1,71,0.02,,,-99.99,open2300 version1.11,2013-05-11 23:10:00,
2013-05-11 19:20:00,51.4,42.1,29.79,West,263,3.6,11.0,70,0.02,,,-99.99,open2300 version1.11,2013-05-11 23:20:00,
2013-05-11 19:30:00,50.5,40.8,29.80,West,270,3.9,8.3,69,0.00,,,-99.99,open2300 version1.11,2013-05-11 23:30:00,
2013-05-11 19:40:00,49.8,40.1,29.80,West,271,4.4,7.8,69,0.00,,,-99.99,open2300 version1.11,2013-05-11 23:40:00,
2013-05-11 19:45:00,49.3,39.5,29.80,West,272,4.2,9.4,69,0.00,,,-99.99,open2300 version1.11,2013-05-11 23:45:00,
2013-05-11 19:55:00,48.7,39.0,29.82,West,267,3.9,9.6,69,0.00,,,-99.99,open2300 version1.11,2013-05-11 23:55:00,
2013-05-11 20:00:00,48.2,38.5,29.82,West,266,4.0,9.6,69,0.00,,,-99.99,open2300 version1.11,2013-05-12 00:00:00,
2013-05-11 20:05:00,47.7,38.4,29.83,West,271,3.6,9.4,70,0.00,,,-99.99,open2300 version1.11,2013-05-12 00:05:00,
2013-05-11 20:10:00,47.1,37.9,29.83,West,261,4.0,7.4,70,0.00,,,-99.99,open2300 version1.11,2013-05-12 00:10:00,
2013-05-11 20:20:00,46.2,37.4,29.84,West,263,3.7,7.6,71,0.00,,,-99.99,open2300 version1.11,2013-05-12 00:20:00,
2013-05-11 20:30:00,45.5,36.7,29.85,West,276,2.7,7.2,71,0.00,,,-99.99,open2300 version1.11,2013-05-12 00:30:00,
2013-05-11 20:35:00,45.1,36.3,29.85,West,261,2.6,5.4,71,0.00,,,-99.99,open2300 version1.11,2013-05-12 00:35:00,
2013-05-11 20:40:00,44.8,35.6,29.85,West,279,2.4,5.8,70,0.00,,,-99.99,open2300 version1.11,2013-05-12 00:40:00,
2013-05-11 20:50:00,44.1,34.9,29.85,West,263,2.1,5.1,70,0.00,,,-99.99,open2300 version1.11,2013-05-12 00:50:00,
2013-05-11 20:55:00,43.5,34.5,29.85,West,274,1.5,4.5,70,0.00,,,-99.99,open2300 version1.11,2013-05-12 00:55:00,
2013-05-11 21:00:00,43.3,34.3,29.85,West,272,0.6,3.6,70,0.00,,,-99.99,open2300 version1.11,2013-05-12 01:00:00,
2013-05-11 21:05:00,43.2,34.1,29.86,West,266,0.8,3.4,70,0.00,,,-99.99,open2300 version1.11,2013-05-12 01:05:00,
2013-05-11 21:15:00,43.0,34.0,29.86,West,267,0.5,2.2,70,0.00,,,-99.99,open2300 version1.11,2013-05-12 01:15:00,
2013-05-11 21:25:00,42.6,33.6,29.86,West,268,0.8,4.2,70,0.00,,,-99.99,open2300 version1.11,2013-05-12 01:25:00,
2013-05-11 21:35:00,42.4,33.4,29.86,WSW,258,0.4,3.6,70,0.00,,,-99.99,open2300 version1.11,2013-05-12 01:35:00,
2013-05-11 21:40:00,42.1,33.4,29.86,West,266,0.3,2.2,71,0.00,,,-99.99,open2300 version1.11,2013-05-12 01:40:00,
2013-05-11 21:45:00,42.1,33.4,29.86,West,270,0.1,2.2,71,0.00,,,-99.99,open2300 version1.11,2013-05-12 01:45:00,
2013-05-11 21:55:00,41.9,33.2,29.86,West,270,0.2,1.8,71,0.00,,,-99.99,open2300 version1.11,2013-05-12 01:55:00,
2013-05-11 22:00:00,41.9,33.2,29.86,WSW,247,0.1,1.1,71,0.00,,,-99.99,open2300 version1.11,2013-05-12 02:00:00,
2013-05-11 22:05:00,41.7,33.4,29.87,WSW,247,0.4,2.0,72,0.00,,,-99.99,open2300 version1.11,2013-05-12 02:05:00,
2013-05-11 22:10:00,41.7,33.4,29.87,SE,135,0.2,2.0,72,0.00,,,-99.99,open2300 version1.11,2013-05-12 02:10:00,
2013-05-11 22:15:00,41.5,33.2,29.87,SE,135,0.3,2.5,72,0.00,,,-99.99,open2300 version1.11,2013-05-12 02:15:00,
2013-05-11 22:25:00,41.5,33.5,29.87,West,266,0.2,2.2,73,0.00,,,-99.99,open2300 version1.11,2013-05-12 02:25:00,
2013-05-11 22:30:00,41.5,33.5,29.87,SE,135,0.3,2.5,73,0.00,,,-99.99,open2300 version1.11,2013-05-12 02:30:00,
2013-05-11 22:35:00,41.5,33.5,29.87,SE,135,0.2,1.1,73,0.00,,,-99.99,open2300 version1.11,2013-05-12 02:35:00,
2013-05-11 22:40:00,41.4,33.3,29.87,SE,135,0.2,1.6,73,0.00,,,-99.99,open2300 version1.11,2013-05-12 02:40:00,
2013-05-11 22:45:00,41.2,33.1,29.87,SE,135,0.1,1.6,73,0.00,,,-99.99,open2300 version1.11,2013-05-12 02:45:00,
2013-05-11 22:55:00,41.2,33.1,29.87,West,270,0.1,1.6,73,0.00,,,-99.99,open2300 version1.11,2013-05-12 02:55:00,
2013-05-11 23:00:00,41.0,33.0,29.87,West,270,0.1,0.9,73,0.00,,,-99.99,open2300 version1.11,2013-05-12 03:00:00,
2013-05-11 23:05:00,40.8,32.8,29.87,SE,135,0.1,1.1,73,0.00,,,-99.99,open2300 version1.11,2013-05-12 03:05:00,
2013-05-11 23:10:00,40.8,32.8,29.87,SE,135,0.2,1.8,73,0.00,,,-99.99,open2300 version1.11,2013-05-12 03:10:00,
2013-05-11 23:20:00,40.8,32.8,29.87,SE,135,0.0,0.0,73,0.00,,,-99.99,open2300 version1.11,2013-05-12 03:20:00,
2013-05-11 23:30:00,40.8,33.1,29.87,SE,135,0.0,0.0,74,0.00,,,-99.99,open2300 version1.11,2013-05-12 03:30:00,
2013-05-11 23:35:00,40.6,32.9,29.86,SE,135,0.0,0.0,74,0.00,,,-99.99,open2300 version1.11,2013-05-12 03:35:00,
2013-05-11 23:40:00,40.6,32.9,29.87,SE,135,0.0,0.0,74,0.00,,,-99.99,open2300 version1.11,2013-05-12 03:40:00,
2013-05-11 23:45:00,40.6,32.9,29.86,SE,135,0.0,0.0,74,0.00,,,-99.99,open2300 version1.11,2013-05-12 03:45:00,
2013-05-11 23:50:00,40.5,33.1,29.86,SE,135,0.0,0.0,75,0.00,,,-99.99,open2300 version1.11,2013-05-12 03:50:00,
2013-05-11 23:55:00,40.5,33.1,29.86,SE,135,0.0,0.0,75,0.00,,,-99.99,open2300 version1.11,2013-05-12 03:55:00,